Alleghany, California
Current Conditions -  °F | °C
As of 2:16 AM on Saturday 20 Dec 2014 (Local Time) from KBLU Reporting Station
Moderate Fog Moderate Fog  
Wind Chill: 32°   Ceiling: 200
Heat Index: 39°   Visibility: 0.25mi
Dew Point: 37°   Wind: 10mph
Humidity: 93%   Direction: 190°S
Pressure: 30.13"   Gusts: NA
Location:  39.47°N, 120.85°W
Report Text: KBLU 201016Z AUTO 19009KT 1/4SM FG VV002 04/03 A3013 RMK AO2 RAE09 P0001 T00390028
Loading
Personal Weather Stations






























Interactive Weather Map New forecast layout! Learn more

10-Day Weather Forecast

Advertisements
Track Severe Weather on mobile